sensor_id;sensor_type;location;lat;lon;timestamp;pressure;altitude;pressure_sealevel;temperature;humidity
20043;BME280;10182;52.896;6.496;2023-03-14T00:03:32;98591.47;;;9.22;100.00
20043;BME280;10182;52.896;6.496;2023-03-14T00:08:34;98591.72;;;9.30;100.00
20043;BME280;10182;52.896;6.496;2023-03-14T00:13:41;98585.78;;;9.51;100.00
20043;BME280;10182;52.896;6.496;2023-03-14T00:18:43;98584.63;;;9.67;100.00
20043;BME280;10182;52.896;6.496;2023-03-14T00:23:47;98583.06;;;9.75;100.00
20043;BME280;10182;52.896;6.496;2023-03-14T00:28:53;98592.44;;;9.79;100.00
20043;BME280;10182;52.896;6.496;2023-03-14T00:33:55;98579.69;;;9.73;100.00
20043;BME280;10182;52.896;6.496;2023-03-14T00:38:58;98577.28;;;9.70;100.00
20043;BME280;10182;52.896;6.496;2023-03-14T00:44:04;98542.19;;;9.91;100.00
20043;BME280;10182;52.896;6.496;2023-03-14T00:49:06;98562.88;;;9.97;100.00
20043;BME280;10182;52.896;6.496;2023-03-14T00:54:09;98545.31;;;9.96;100.00
20043;BME280;10182;52.896;6.496;2023-03-14T00:59:13;98542.19;;;9.91;100.00
20043;BME280;10182;52.896;6.496;2023-03-14T01:04:17;98538.47;;;9.82;100.00
20043;BME280;10182;52.896;6.496;2023-03-14T01:09:19;98533.19;;;9.82;100.00
20043;BME280;10182;52.896;6.496;2023-03-14T01:14:22;98529.81;;;9.69;100.00
20043;BME280;10182;52.896;6.496;2023-03-14T01:19:24;98534.84;;;9.60;100.00
20043;BME280;10182;52.896;6.496;2023-03-14T01:24:27;98546.38;;;9.59;100.00
20043;BME280;10182;52.896;6.496;2023-03-14T01:29:30;98548.56;;;9.54;100.00
20043;BME280;10182;52.896;6.496;2023-03-14T01:34:33;98547.31;;;9.47;100.00
20043;BME280;10182;52.896;6.496;2023-03-14T01:39:35;98545.06;;;9.42;100.00
20043;BME280;10182;52.896;6.496;2023-03-14T01:44:49;98548.88;;;9.38;100.00
20043;BME280;10182;52.896;6.496;2023-03-14T01:49:55;98555.38;;;9.34;100.00
20043;BME280;10182;52.896;6.496;2023-03-14T01:55:00;98550.19;;;9.32;100.00
20043;BME280;10182;52.896;6.496;2023-03-14T02:00:10;98534.47;;;9.31;100.00
20043;BME280;10182;52.896;6.496;2023-03-14T02:05:15;98532.78;;;9.30;100.00
20043;BME280;10182;52.896;6.496;2023-03-14T02:10:21;98531.84;;;9.31;100.00
20043;BME280;10182;52.896;6.496;2023-03-14T02:15:25;98527.63;;;9.28;100.00
20043;BME280;10182;52.896;6.496;2023-03-14T02:20:31;98525.66;;;9.19;100.00
20043;BME280;10182;52.896;6.496;2023-03-14T02:25:42;98530.56;;;9.12;100.00
20043;BME280;10182;52.896;6.496;2023-03-14T02:30:47;98523.97;;;9.07;100.00
20043;BME280;10182;52.896;6.496;2023-03-14T02:35:53;98520.00;;;9.01;100.00
20043;BME280;10182;52.896;6.496;2023-03-14T02:40:58;98516.59;;;8.99;100.00
20043;BME280;10182;52.896;6.496;2023-03-14T02:46:05;98520.31;;;8.96;100.00
20043;BME280;10182;52.896;6.496;2023-03-14T02:51:10;98513.59;;;8.92;100.00
20043;BME280;10182;52.896;6.496;2023-03-14T02:56:18;98519.22;;;8.88;100.00
20043;BME280;10182;52.896;6.496;2023-03-14T03:01:21;98510.91;;;8.81;100.00
20043;BME280;10182;52.896;6.496;2023-03-14T03:06:23;98515.78;;;8.63;100.00
20043;BME280;10182;52.896;6.496;2023-03-14T03:11:25;98516.97;;;8.59;100.00
20043;BME280;10182;52.896;6.496;2023-03-14T03:16:29;98529.41;;;8.57;100.00
20043;BME280;10182;52.896;6.496;2023-03-14T03:21:31;98528.06;;;8.51;100.00
20043;BME280;10182;52.896;6.496;2023-03-14T03:26:33;98528.94;;;8.52;100.00
20043;BME280;10182;52.896;6.496;2023-03-14T03:31:38;98521.31;;;8.47;100.00
20043;BME280;10182;52.896;6.496;2023-03-14T03:36:42;98515.50;;;8.42;100.00
20043;BME280;10182;52.896;6.496;2023-03-14T03:41:44;98519.84;;;8.43;100.00
20043;BME280;10182;52.896;6.496;2023-03-14T03:46:49;98516.47;;;8.41;100.00
20043;BME280;10182;52.896;6.496;2023-03-14T03:51:51;98517.66;;;8.37;100.00
20043;BME280;10182;52.896;6.496;2023-03-14T03:56:53;98520.19;;;8.38;100.00
20043;BME280;10182;52.896;6.496;2023-03-14T04:01:56;98528.53;;;8.32;100.00
20043;BME280;10182;52.896;6.496;2023-03-14T04:07:01;98533.81;;;8.32;100.00
20043;BME280;10182;52.896;6.496;2023-03-14T04:12:03;98538.78;;;8.24;100.00
20043;BME280;10182;52.896;6.496;2023-03-14T04:17:08;98526.78;;;8.20;100.00
20043;BME280;10182;52.896;6.496;2023-03-14T04:22:10;98537.56;;;8.17;100.00
20043;BME280;10182;52.896;6.496;2023-03-14T04:27:12;98537.78;;;8.13;100.00
20043;BME280;10182;52.896;6.496;2023-03-14T04:32:22;98541.25;;;8.14;100.00
20043;BME280;10182;52.896;6.496;2023-03-14T04:37:24;98540.41;;;8.13;100.00
20043;BME280;10182;52.896;6.496;2023-03-14T04:42:26;98536.81;;;8.14;100.00
20043;BME280;10182;52.896;6.496;2023-03-14T04:47:29;98521.44;;;8.08;100.00
20043;BME280;10182;52.896;6.496;2023-03-14T04:52:30;98522.63;;;8.04;100.00
20043;BME280;10182;52.896;6.496;2023-03-14T04:57:32;98523.78;;;8.00;100.00
20043;BME280;10182;52.896;6.496;2023-03-14T05:02:36;98512.06;;;8.04;100.00
20043;BME280;10182;52.896;6.496;2023-03-14T05:07:38;98497.81;;;8.07;100.00
20043;BME280;10182;52.896;6.496;2023-03-14T05:12:40;98493.38;;;8.07;100.00
20043;BME280;10182;52.896;6.496;2023-03-14T05:17:44;98490.50;;;8.10;100.00
20043;BME280;10182;52.896;6.496;2023-03-14T05:22:47;98484.94;;;8.15;100.00
20043;BME280;10182;52.896;6.496;2023-03-14T05:27:49;98484.34;;;8.23;100.00
20043;BME280;10182;52.896;6.496;2023-03-14T05:32:52;98491.19;;;8.25;100.00
20043;BME280;10182;52.896;6.496;2023-03-14T05:37:54;98479.44;;;8.18;100.00
20043;BME280;10182;52.896;6.496;2023-03-14T05:42:56;98485.34;;;8.09;100.00
20043;BME280;10182;52.896;6.496;2023-03-14T05:48:01;98487.72;;;8.01;100.00
20043;BME280;10182;52.896;6.496;2023-03-14T05:53:06;98500.28;;;7.97;100.00
20043;BME280;10182;52.896;6.496;2023-03-14T05:58:08;98503.03;;;7.95;100.00
20043;BME280;10182;52.896;6.496;2023-03-14T06:03:11;98505.03;;;7.92;100.00
20043;BME280;10182;52.896;6.496;2023-03-14T06:08:16;98501.44;;;7.93;100.00
20043;BME280;10182;52.896;6.496;2023-03-14T06:13:18;98509.66;;;7.88;100.00
20043;BME280;10182;52.896;6.496;2023-03-14T06:18:22;98509.03;;;7.97;100.00
20043;BME280;10182;52.896;6.496;2023-03-14T06:23:24;98500.41;;;7.95;100.00
20043;BME280;10182;52.896;6.496;2023-03-14T06:28:28;98501.56;;;7.91;100.00
20043;BME280;10182;52.896;6.496;2023-03-14T06:33:40;98514.75;;;7.91;100.00
20043;BME280;10182;52.896;6.496;2023-03-14T06:38:44;98520.97;;;7.90;100.00
20043;BME280;10182;52.896;6.496;2023-03-14T06:43:49;98524.31;;;7.92;100.00
20043;BME280;10182;52.896;6.496;2023-03-14T06:48:53;98529.69;;;7.91;100.00
20043;BME280;10182;52.896;6.496;2023-03-14T06:53:55;98544.81;;;7.89;100.00
20043;BME280;10182;52.896;6.496;2023-03-14T06:58:57;98568.81;;;7.84;100.00
20043;BME280;10182;52.896;6.496;2023-03-14T07:04:04;98578.00;;;7.78;100.00
20043;BME280;10182;52.896;6.496;2023-03-14T07:09:05;98614.06;;;7.78;100.00
20043;BME280;10182;52.896;6.496;2023-03-14T07:14:07;98629.25;;;7.61;100.00
20043;BME280;10182;52.896;6.496;2023-03-14T07:19:12;98664.63;;;6.21;100.00
20043;BME280;10182;52.896;6.496;2023-03-14T07:24:17;98703.03;;;5.79;100.00
20043;BME280;10182;52.896;6.496;2023-03-14T07:29:20;98712.25;;;5.55;100.00
20043;BME280;10182;52.896;6.496;2023-03-14T07:34:25;98755.28;;;5.22;100.00
20043;BME280;10182;52.896;6.496;2023-03-14T07:39:28;98769.00;;;4.46;100.00
20043;BME280;10182;52.896;6.496;2023-03-14T07:44:30;98795.41;;;4.26;100.00
20043;BME280;10182;52.896;6.496;2023-03-14T07:49:33;98811.78;;;3.96;100.00
20043;BME280;10182;52.896;6.496;2023-03-14T07:54:35;98857.97;;;3.79;100.00
20043;BME280;10182;52.896;6.496;2023-03-14T07:59:37;98860.78;;;3.57;100.00
20043;BME280;10182;52.896;6.496;2023-03-14T08:04:41;98891.84;;;3.46;100.00
20043;BME280;10182;52.896;6.496;2023-03-14T08:09:43;98901.13;;;3.53;100.00
20043;BME280;10182;52.896;6.496;2023-03-14T08:14:46;98922.41;;;3.64;100.00
20043;BME280;10182;52.896;6.496;2023-03-14T08:19:50;98950.31;;;3.65;100.00
20043;BME280;10182;52.896;6.496;2023-03-14T08:24:52;98957.50;;;3.79;100.00
20043;BME280;10182;52.896;6.496;2023-03-14T08:29:54;98961.69;;;3.83;100.00
20043;BME280;10182;52.896;6.496;2023-03-14T08:34:57;98983.34;;;3.87;100.00
20043;BME280;10182;52.896;6.496;2023-03-14T08:39:59;99007.47;;;3.94;100.00
20043;BME280;10182;52.896;6.496;2023-03-14T08:45:02;99023.41;;;4.08;100.00
20043;BME280;10182;52.896;6.496;2023-03-14T08:50:07;99036.22;;;4.14;100.00
20043;BME280;10182;52.896;6.496;2023-03-14T08:55:09;99071.84;;;4.18;100.00
20043;BME280;10182;52.896;6.496;2023-03-14T09:00:15;99086.06;;;4.32;100.00
20043;BME280;10182;52.896;6.496;2023-03-14T09:05:18;99109.06;;;4.44;100.00
20043;BME280;10182;52.896;6.496;2023-03-14T09:10:21;99117.50;;;4.51;100.00
20043;BME280;10182;52.896;6.496;2023-03-14T09:15:23;99143.09;;;4.65;100.00
20043;BME280;10182;52.896;6.496;2023-03-14T09:20:26;99163.53;;;4.75;100.00
20043;BME280;10182;52.896;6.496;2023-03-14T09:25:30;99170.28;;;4.81;100.00
20043;BME280;10182;52.896;6.496;2023-03-14T09:30:44;99183.94;;;4.88;100.00
20043;BME280;10182;52.896;6.496;2023-03-14T09:35:49;99210.16;;;5.07;100.00
20043;BME280;10182;52.896;6.496;2023-03-14T09:40:52;99228.66;;;5.23;100.00
20043;BME280;10182;52.896;6.496;2023-03-14T09:45:55;99241.97;;;5.37;100.00
20043;BME280;10182;52.896;6.496;2023-03-14T09:51:05;99244.91;;;5.49;100.00
20043;BME280;10182;52.896;6.496;2023-03-14T09:56:12;99255.69;;;5.42;100.00
20043;BME280;10182;52.896;6.496;2023-03-14T10:01:16;99306.91;;;4.77;100.00
20043;BME280;10182;52.896;6.496;2023-03-14T10:06:27;99311.41;;;4.74;100.00
20043;BME280;10182;52.896;6.496;2023-03-14T10:11:33;99321.19;;;4.90;100.00
20043;BME280;10182;52.896;6.496;2023-03-14T10:16:36;99356.66;;;5.18;100.00
20043;BME280;10182;52.896;6.496;2023-03-14T10:21:41;99353.94;;;5.19;100.00
20043;BME280;10182;52.896;6.496;2023-03-14T10:26:48;99381.81;;;5.03;100.00
20043;BME280;10182;52.896;6.496;2023-03-14T10:31:52;99388.72;;;5.05;100.00
20043;BME280;10182;52.896;6.496;2023-03-14T10:36:58;99428.38;;;4.99;100.00
20043;BME280;10182;52.896;6.496;2023-03-14T10:42:06;99433.03;;;4.93;100.00
20043;BME280;10182;52.896;6.496;2023-03-14T10:47:18;99454.09;;;5.31;100.00
20043;BME280;10182;52.896;6.496;2023-03-14T10:52:24;99480.94;;;5.37;100.00
20043;BME280;10182;52.896;6.496;2023-03-14T10:57:27;99485.81;;;5.45;100.00
20043;BME280;10182;52.896;6.496;2023-03-14T11:02:47;99521.91;;;5.41;100.00
20043;BME280;10182;52.896;6.496;2023-03-14T11:07:54;99521.31;;;5.35;100.00
20043;BME280;10182;52.896;6.496;2023-03-14T11:13:06;99537.94;;;5.54;100.00
20043;BME280;10182;52.896;6.496;2023-03-14T11:23:58;99609.88;;;5.11;100.00
20043;BME280;10182;52.896;6.496;2023-03-14T11:29:12;99611.97;;;5.23;100.00
20043;BME280;10182;52.896;6.496;2023-03-14T11:34:33;99623.13;;;5.49;100.00
20043;BME280;10182;52.896;6.496;2023-03-14T11:39:41;99648.44;;;5.91;100.00
20043;BME280;10182;52.896;6.496;2023-03-14T11:44:48;99653.22;;;5.62;100.00
20043;BME280;10182;52.896;6.496;2023-03-14T11:49:54;99675.91;;;5.22;100.00
20043;BME280;10182;52.896;6.496;2023-03-14T11:55:05;99692.44;;;5.24;100.00
20043;BME280;10182;52.896;6.496;2023-03-14T12:00:16;99693.38;;;5.64;100.00
20043;BME280;10182;52.896;6.496;2023-03-14T12:05:44;99710.25;;;5.38;100.00
20043;BME280;10182;52.896;6.496;2023-03-14T12:10:53;99719.41;;;5.50;100.00
20043;BME280;10182;52.896;6.496;2023-03-14T12:16:00;99741.06;;;5.55;100.00
20043;BME280;10182;52.896;6.496;2023-03-14T12:21:10;99754.88;;;5.60;100.00
20043;BME280;10182;52.896;6.496;2023-03-14T12:26:17;99776.69;;;5.62;100.00
20043;BME280;10182;52.896;6.496;2023-03-14T12:31:40;99771.53;;;5.81;100.00
20043;BME280;10182;52.896;6.496;2023-03-14T12:36:56;99783.69;;;5.62;100.00
20043;BME280;10182;52.896;6.496;2023-03-14T12:42:09;99782.63;;;5.67;100.00
20043;BME280;10182;52.896;6.496;2023-03-14T12:47:44;99807.94;;;5.68;100.00
20043;BME280;10182;52.896;6.496;2023-03-14T12:58:26;99815.72;;;5.27;100.00
20043;BME280;10182;52.896;6.496;2023-03-14T13:03:42;99819.03;;;5.54;100.00
20043;BME280;10182;52.896;6.496;2023-03-14T13:08:46;99865.59;;;5.73;100.00
20043;BME280;10182;52.896;6.496;2023-03-14T13:13:57;99864.97;;;5.66;100.00
20043;BME280;10182;52.896;6.496;2023-03-14T13:19:14;99869.59;;;5.82;100.00
20043;BME280;10182;52.896;6.496;2023-03-14T13:24:21;99878.59;;;5.98;100.00
20043;BME280;10182;52.896;6.496;2023-03-14T13:29:27;99899.13;;;5.88;100.00
20043;BME280;10182;52.896;6.496;2023-03-14T13:34:32;99924.50;;;5.89;100.00
20043;BME280;10182;52.896;6.496;2023-03-14T13:39:34;99946.91;;;5.54;98.00
20043;BME280;10182;52.896;6.496;2023-03-14T13:44:48;99944.50;;;5.48;100.00
20043;BME280;10182;52.896;6.496;2023-03-14T13:49:55;99956.91;;;5.44;100.00
20043;BME280;10182;52.896;6.496;2023-03-14T13:54:59;99984.25;;;5.15;100.00
20043;BME280;10182;52.896;6.496;2023-03-14T14:00:05;99987.50;;;5.21;100.00
20043;BME280;10182;52.896;6.496;2023-03-14T14:05:10;100000.94;;;5.37;100.00
20043;BME280;10182;52.896;6.496;2023-03-14T14:10:14;100016.34;;;5.47;100.00
20043;BME280;10182;52.896;6.496;2023-03-14T14:15:20;100028.13;;;5.36;100.00
20043;BME280;10182;52.896;6.496;2023-03-14T14:20:27;100045.13;;;5.01;100.00
20043;BME280;10182;52.896;6.496;2023-03-14T14:25:33;100048.28;;;5.11;100.00
20043;BME280;10182;52.896;6.496;2023-03-14T14:30:36;100077.84;;;5.41;100.00
20043;BME280;10182;52.896;6.496;2023-03-14T14:35:38;100075.25;;;5.65;100.00
20043;BME280;10182;52.896;6.496;2023-03-14T14:40:44;100105.34;;;5.31;100.00
20043;BME280;10182;52.896;6.496;2023-03-14T14:45:51;100116.78;;;5.30;100.00
20043;BME280;10182;52.896;6.496;2023-03-14T14:50:59;100115.41;;;5.18;100.00
20043;BME280;10182;52.896;6.496;2023-03-14T14:56:04;100141.59;;;5.21;100.00
20043;BME280;10182;52.896;6.496;2023-03-14T15:01:14;100149.03;;;5.33;100.00
20043;BME280;10182;52.896;6.496;2023-03-14T15:06:17;100148.91;;;5.62;100.00
20043;BME280;10182;52.896;6.496;2023-03-14T15:11:24;100146.94;;;5.68;100.00
20043;BME280;10182;52.896;6.496;2023-03-14T15:16:29;100173.34;;;5.40;98.16
20043;BME280;10182;52.896;6.496;2023-03-14T15:21:35;100185.06;;;5.55;97.79
20043;BME280;10182;52.896;6.496;2023-03-14T15:26:37;100196.59;;;5.51;100.00
20043;BME280;10182;52.896;6.496;2023-03-14T15:31:41;100199.50;;;5.43;100.00
20043;BME280;10182;52.896;6.496;2023-03-14T15:36:44;100208.75;;;5.28;100.00
20043;BME280;10182;52.896;6.496;2023-03-14T15:41:45;100214.72;;;5.33;100.00
20043;BME280;10182;52.896;6.496;2023-03-14T15:46:49;100229.25;;;5.17;100.00
20043;BME280;10182;52.896;6.496;2023-03-14T15:51:54;100235.84;;;5.02;100.00
20043;BME280;10182;52.896;6.496;2023-03-14T15:56:56;100246.47;;;4.97;100.00
20043;BME280;10182;52.896;6.496;2023-03-14T16:02:00;100259.34;;;4.77;100.00
20043;BME280;10182;52.896;6.496;2023-03-14T16:07:04;100260.22;;;4.77;100.00
20043;BME280;10182;52.896;6.496;2023-03-14T16:12:07;100270.47;;;4.85;100.00
20043;BME280;10182;52.896;6.496;2023-03-14T16:17:10;100286.53;;;4.74;100.00
20043;BME280;10182;52.896;6.496;2023-03-14T16:22:12;100320.94;;;4.33;100.00
20043;BME280;10182;52.896;6.496;2023-03-14T16:27:14;100353.00;;;3.39;100.00
20043;BME280;10182;52.896;6.496;2023-03-14T16:32:17;100360.56;;;3.13;100.00
20043;BME280;10182;52.896;6.496;2023-03-14T16:37:25;100374.09;;;2.93;100.00
20043;BME280;10182;52.896;6.496;2023-03-14T16:42:29;100391.13;;;3.12;100.00
20043;BME280;10182;52.896;6.496;2023-03-14T16:47:33;100383.84;;;3.25;100.00
20043;BME280;10182;52.896;6.496;2023-03-14T16:52:34;100387.84;;;3.42;100.00
20043;BME280;10182;52.896;6.496;2023-03-14T16:57:38;100398.31;;;3.43;100.00
20043;BME280;10182;52.896;6.496;2023-03-14T17:02:41;100414.22;;;3.34;100.00
20043;BME280;10182;52.896;6.496;2023-03-14T17:07:43;100405.47;;;3.33;100.00
20043;BME280;10182;52.896;6.496;2023-03-14T17:12:45;100412.59;;;3.28;100.00
20043;BME280;10182;52.896;6.496;2023-03-14T17:17:52;100417.16;;;3.18;100.00
20043;BME280;10182;52.896;6.496;2023-03-14T17:22:54;100442.63;;;3.12;100.00
20043;BME280;10182;52.896;6.496;2023-03-14T17:27:56;100429.50;;;3.13;100.00
20043;BME280;10182;52.896;6.496;2023-03-14T17:32:59;100428.72;;;3.08;100.00
20043;BME280;10182;52.896;6.496;2023-03-14T17:38:04;100437.34;;;3.13;100.00
20043;BME280;10182;52.896;6.496;2023-03-14T17:43:06;100443.56;;;3.08;100.00
20043;BME280;10182;52.896;6.496;2023-03-14T17:48:10;100460.94;;;3.10;100.00
20043;BME280;10182;52.896;6.496;2023-03-14T17:53:12;100477.47;;;3.14;100.00
20043;BME280;10182;52.896;6.496;2023-03-14T17:58:14;100503.47;;;3.23;100.00
20043;BME280;10182;52.896;6.496;2023-03-14T18:03:19;100522.50;;;3.31;100.00
20043;BME280;10182;52.896;6.496;2023-03-14T18:08:23;100539.00;;;3.35;100.00
20043;BME280;10182;52.896;6.496;2023-03-14T18:13:25;100560.28;;;3.18;100.00
20043;BME280;10182;52.896;6.496;2023-03-14T18:18:31;100546.06;;;2.83;100.00
20043;BME280;10182;52.896;6.496;2023-03-14T18:23:33;100542.50;;;2.37;100.00
20043;BME280;10182;52.896;6.496;2023-03-14T18:28:35;100558.34;;;2.26;100.00
20043;BME280;10182;52.896;6.496;2023-03-14T18:33:38;100572.41;;;2.19;100.00
20043;BME280;10182;52.896;6.496;2023-03-14T18:38:42;100571.50;;;2.22;100.00
20043;BME280;10182;52.896;6.496;2023-03-14T18:43:45;100577.63;;;2.19;100.00
20043;BME280;10182;52.896;6.496;2023-03-14T18:48:51;100582.94;;;2.13;100.00
20043;BME280;10182;52.896;6.496;2023-03-14T18:53:57;100589.97;;;2.09;100.00
20043;BME280;10182;52.896;6.496;2023-03-14T18:58:59;100587.38;;;2.06;100.00
20043;BME280;10182;52.896;6.496;2023-03-14T19:04:04;100578.84;;;1.93;100.00
20043;BME280;10182;52.896;6.496;2023-03-14T19:09:06;100582.47;;;1.83;100.00
20043;BME280;10182;52.896;6.496;2023-03-14T19:14:11;100585.97;;;1.82;100.00
20043;BME280;10182;52.896;6.496;2023-03-14T19:19:16;100586.84;;;1.82;100.00
20043;BME280;10182;52.896;6.496;2023-03-14T19:24:19;100591.09;;;1.90;100.00
20043;BME280;10182;52.896;6.496;2023-03-14T19:29:22;100592.94;;;1.80;100.00
20043;BME280;10182;52.896;6.496;2023-03-14T19:34:28;100592.03;;;1.84;100.00
20043;BME280;10182;52.896;6.496;2023-03-14T19:39:31;100598.22;;;1.77;100.00
20043;BME280;10182;52.896;6.496;2023-03-14T19:44:33;100601.75;;;1.73;100.00
20043;BME280;10182;52.896;6.496;2023-03-14T19:49:36;100604.38;;;1.71;100.00
20043;BME280;10182;52.896;6.496;2023-03-14T19:54:38;100614.97;;;1.60;100.00
20043;BME280;10182;52.896;6.496;2023-03-14T19:59:41;100617.56;;;1.60;100.00
20043;BME280;10182;52.896;6.496;2023-03-14T20:04:44;100634.16;;;1.53;100.00
20043;BME280;10182;52.896;6.496;2023-03-14T20:09:48;100638.66;;;1.42;100.00
20043;BME280;10182;52.896;6.496;2023-03-14T20:14:50;100635.19;;;1.41;100.00
20043;BME280;10182;52.896;6.496;2023-03-14T20:19:53;100632.59;;;1.40;100.00
20043;BME280;10182;52.896;6.496;2023-03-14T20:24:55;100641.25;;;1.43;100.00
20043;BME280;10182;52.896;6.496;2023-03-14T20:29:57;100634.44;;;1.31;100.00
20043;BME280;10182;52.896;6.496;2023-03-14T20:35:03;100630.91;;;1.32;100.00
20043;BME280;10182;52.896;6.496;2023-03-14T20:40:05;100646.59;;;1.29;100.00
20043;BME280;10182;52.896;6.496;2023-03-14T20:45:09;100663.13;;;1.30;100.00
20043;BME280;10182;52.896;6.496;2023-03-14T20:50:12;100662.19;;;1.37;100.00
20043;BME280;10182;52.896;6.496;2023-03-14T20:55:14;100671.78;;;1.38;100.00
20043;BME280;10182;52.896;6.496;2023-03-14T21:00:16;100669.16;;;1.37;100.00
20043;BME280;10182;52.896;6.496;2023-03-14T21:05:20;100662.16;;;1.40;100.00
20043;BME280;10182;52.896;6.496;2023-03-14T21:10:25;100657.78;;;1.41;100.00
20043;BME280;10182;52.896;6.496;2023-03-14T21:15:27;100675.25;;;1.39;100.00
20043;BME280;10182;52.896;6.496;2023-03-14T21:20:35;100689.13;;;1.41;100.00
20043;BME280;10182;52.896;6.496;2023-03-14T21:25:38;100701.31;;;1.40;100.00
20043;BME280;10182;52.896;6.496;2023-03-14T21:30:40;100697.75;;;1.47;100.00
20043;BME280;10182;52.896;6.496;2023-03-14T21:35:43;100704.72;;;1.48;100.00
20043;BME280;10182;52.896;6.496;2023-03-14T21:40:54;100693.31;;;1.56;100.00
20043;BME280;10182;52.896;6.496;2023-03-14T21:45:57;100690.66;;;1.62;100.00
20043;BME280;10182;52.896;6.496;2023-03-14T21:51:01;100703.56;;;1.76;100.00
20043;BME280;10182;52.896;6.496;2023-03-14T21:56:07;100702.75;;;1.74;100.00
20043;BME280;10182;52.896;6.496;2023-03-14T22:01:10;100700.13;;;1.74;100.00
20043;BME280;10182;52.896;6.496;2023-03-14T22:06:16;100726.22;;;1.75;100.00
20043;BME280;10182;52.896;6.496;2023-03-14T22:11:18;100721.78;;;1.80;100.00
20043;BME280;10182;52.896;6.496;2023-03-14T22:16:20;100712.19;;;1.84;100.00
20043;BME280;10182;52.896;6.496;2023-03-14T22:21:24;100714.00;;;1.77;100.00
20043;BME280;10182;52.896;6.496;2023-03-14T22:26:29;100718.41;;;1.71;100.00
20043;BME280;10182;52.896;6.496;2023-03-14T22:31:34;100720.19;;;1.70;100.00
20043;BME280;10182;52.896;6.496;2023-03-14T22:36:37;100711.50;;;1.69;100.00
20043;BME280;10182;52.896;6.496;2023-03-14T22:41:39;100717.59;;;1.68;100.00
20043;BME280;10182;52.896;6.496;2023-03-14T22:46:43;100726.34;;;1.64;100.00
20043;BME280;10182;52.896;6.496;2023-03-14T22:51:46;100730.72;;;1.59;100.00
20043;BME280;10182;52.896;6.496;2023-03-14T22:56:48;100731.69;;;1.52;100.00
20043;BME280;10182;52.896;6.496;2023-03-14T23:01:52;100736.94;;;1.47;100.00
20043;BME280;10182;52.896;6.496;2023-03-14T23:06:56;100734.31;;;1.47;100.00
20043;BME280;10182;52.896;6.496;2023-03-14T23:12:06;100743.03;;;1.48;100.00
20043;BME280;10182;52.896;6.496;2023-03-14T23:17:08;100750.03;;;1.43;100.00
20043;BME280;10182;52.896;6.496;2023-03-14T23:22:11;100755.22;;;1.46;100.00
20043;BME280;10182;52.896;6.496;2023-03-14T23:27:14;100755.22;;;1.44;100.00
20043;BME280;10182;52.896;6.496;2023-03-14T23:32:19;100769.16;;;1.43;100.00
20043;BME280;10182;52.896;6.496;2023-03-14T23:37:23;100762.22;;;1.41;100.00
20043;BME280;10182;52.896;6.496;2023-03-14T23:42:25;100784.03;;;1.35;100.00
20043;BME280;10182;52.896;6.496;2023-03-14T23:47:27;100778.78;;;1.37;100.00
20043;BME280;10182;52.896;6.496;2023-03-14T23:52:31;100790.13;;;1.35;100.00
20043;BME280;10182;52.896;6.496;2023-03-14T23:57:33;100790.13;;;1.35;100.00
